Detailed Flight Report of Nuri Burak ERKAL ;
Number CXD079 
Departure Aerodrome LTCB 
Arrival Aerodrome LTFD

Map generated by the Great Circle Mapper - copyright © Karl L. Swartz.

Pilot In Command CXD079 : Nuri Burak Erkal
Aircraft B773 / TC-NZL
Date Of Flight 2020-06-24
Departure Time 07:15 UTC
Arrival Time 08:58 UTC
Block Time 01:43
Distance 593 Nm.
Used Fuel 23,922 Lbs.
   
Detailed Flight Log [2020/06/24 07:30:00]
Flight IATA:C001
Pilot Number:079
Company ICAO:CXD
Aircraft Type:B773
Aircraft Registration:TC-NZL
Departing Airport: LTCB
Destination Airport: LTFD
Alternate Airport:LTBU
Online: VATSIM
Route:EMLAD UM11 CRM UM688 EKSUK UL852 TIVUG UM10 HAKAN UT310 GUMRU UW702 BKZ UN604 BIG UG80 KONEN
Flight Level:FL380
No pause
07:30 Zero fuel Weight: 457184 Lbs, Fuel Weight: 37341 Lbs
07:30 VATSIM:LTCB 231750Z 05004KT 9999 FEW012 BKN033 24/23 Q1008
07:30 VATSIM:LTFD 231750Z 00000KT 9999 SCT035 22/19 Q1011
07:33 Parking Brakes off
07:43 VR= 165 Knots
07:43 V2= 174 Knots
07:43 Take-off
07:43 Take off Weight: 493332 Lbs
07:43 Wind: 049º @ 004 Knots Heading: 282º
07:43 POS N40º 58´ 04´´ E038º 04´ 49´´
07:43 N11 92 N12 92
07:43 Flaps:5º at 175 Knots
07:43 Gear Up: 176 Knots
07:44 Flaps:1º at 200 Knots
07:44 Flaps:Up at 223 Knots
07:58 Wind:230º@096 Knots Hea
ding: 267º Ground Speed: 415 Knots Altitude 37467 ft
07:58 TOC
07:58 Fuel Weight: 28081 Lb
08:13 Wind:226º@100 Knots Heading: 278º Ground Speed: 434 Knots Altitude 37929 ft
08:28 Wind:223º@084 Knots Heading: 250º Ground Speed: 416 Knots Altitude 37877 ft
08:43 Wind:222º@061 Knots Heading: 251º Ground Speed: 436 Knots Altitude 37959 ft
08:47 TOD
08:47 Fuel Weight: 16816 Lb
08:58 Wind:244º@011 Knots Heading: 214º Ground Speed: 380 Knots Altitude 22234 ft
09:11 Flaps:1º at 186 Knots
09:12 Flaps:5º at 189 Knots
09:12 Gear Down: 195 Knots
09:12 Flaps:15º at 195 Knots
09:12 Flaps:30º at 191 Knots
09:13 Wind:241º@003 Knots Heading: 053º Ground Speed: 194 Knots Altitude 1709 ft
09:13 Flaps:35º at 174 Knots
09:13 Flaps:Full at 158 Knots
09:14 TouchDown:Rate -460 ft/min Speed: 134 Knots
09:15 VATSIM:LTFD 231950Z 00000KT 9999 FEW035 19/17 Q1012
09:15 Land
09:15 Wind:0
00º@000 Knots
09:15 Heading: 054º
09:15 Flight Duration: 01:32
09:15 Landing Weight: 470696 Lbs
09:15 POS N39º 32´ 59´´ E027º 00´ 20´´
09:16 Parking brakes on
09:16 Block to Block Duration: 01:43
09:16 Final Fuel: 13419 Lbls
09:16 Spent Fuel: 23922 Lbls
09:16 Flight Length: 593 NM
09:16 TOD Land Length: 152 NM

Text Link of Flight Log http://www.candanair.net/acars/logs/CXD07920200624073000.txt
   

[ Back ]